Time;durP1;ratioP1;P1;durP2;ratioP2;P2;SDS_P1;SDS_P2;PMS_P1;PMS_P2;Temp;Humidity;BMP_temperature;BMP_pressure;BME280_temperature;BME280_humidity;BME280_pressure;Samples;Min_cycle;Max_cycle;Signal;HPM_P1;HPM_P2
2022/03/26 00:00:30;;;;;;;80.07;37.53;;;;;;;7.81;52.64;100076.52;1754929;82;21480;-41
2022/03/26 00:02:56;;;;;;;81.63;37.60;;;;;;;7.81;52.16;100078.30;1754653;82;21031;-41
2022/03/26 00:05:23;;;;;;;77.00;37.45;;;;;;;7.80;52.56;100083.11;1754608;82;21015;-41
2022/03/26 00:07:49;;;;;;;91.32;38.75;;;;;;;7.77;53.02;100077.98;1754619;80;21587;-41
2022/03/26 00:10:15;;;;;;;72.32;37.45;;;;;;;7.74;53.28;100080.23;1754555;81;20983;-41
2022/03/26 00:12:41;;;;;;;75.30;39.13;;;;;;;7.72;53.54;100072.03;1754623;81;21100;-41
2022/03/26 00:15:08;;;;;;;76.33;37.53;;;;;;;7.68;53.34;100063.42;1754593;82;20991;-41
2022/03/26 00:17:34;;;;;;;84.03;39.43;;;;;;;7.63;53.38;100066.63;1754831;82;21465;-41
2022/03/26 00:20:01;;;;;;;80.57;37.75;;;;;;;7.65;52.67;100065.66;1754608;82;21007;-42
2022/03/26 00:22:27;;;;;;;80.70;37.70;;;;;;;7.61;54.22;100061.89;1754854;82;21002;-41
2022/03/26 00:24:53;;;;;;;73.92;38.17;;;;;;;7.59;54.20;100060.63;1754573;82;20991;-41
2022/03/26 00:27:19;;;;;;;81.92;38.80;;;;;;;7.57;54.31;100061.13;1754569;82;21484;-40
2022/03/26 00:29:45;;;;;;;78.97;37.40;;;;;;;7.55;54.09;100053.78;1754545;82;20983;-40
2022/03/26 00:32:11;;;;;;;74.27;37.55;;;;;;;7.51;54.44;100061.30;1754517;82;21003;-41
2022/03/26 00:34:38;;;;;;;76.40;37.93;;;;;;;7.48;54.40;100053.56;1754587;82;20960;-41
2022/03/26 00:37:05;;;;;;;75.97;39.05;;;;;;;7.43;54.29;100045.83;1748671;82;21608;-42
2022/03/26 00:39:33;;;;;;;75.23;39.03;;;;;;;7.39;54.65;100045.53;1746561;82;21046;-41
2022/03/26 00:41:59;;;;;;;;;;;;;;;7.36;54.96;100050.00;1749032;82;20995;-41
2022/03/26 00:44:25;;;;;;;70.03;35.75;;;;;;;7.28;57.79;100042.38;1746341;82;20203;-41
2022/03/26 00:46:51;;;;;;;88.62;40.58;;;;;;;7.24;55.95;100040.31;1746417;82;20971;-40
2022/03/26 00:49:18;;;;;;;80.83;39.75;;;;;;;7.22;55.56;100032.96;1746330;82;20964;-40
2022/03/26 00:51:45;;;;;;;78.28;39.33;;;;;;;7.20;55.14;100032.12;1746448;82;21004;-41
2022/03/26 00:54:12;;;;;;;77.15;39.38;;;;;;;7.16;56.09;100029.66;1746333;81;21504;-41
2022/03/26 00:56:40;;;;;;;79.77;40.48;;;;;;;7.08;56.76;100034.66;1746711;81;20967;-40
2022/03/26 00:59:07;;;;;;;81.63;40.08;;;;;;;7.07;55.96;100029.02;1746658;82;21484;-41
2022/03/26 01:01:34;;;;;;;86.10;39.83;;;;;;;7.04;56.88;100023.02;1746880;82;20999;-41
2022/03/26 01:04:00;;;;;;;83.42;40.70;;;;;;;7.00;56.74;100024.01;1746666;82;20991;-40
2022/03/26 01:06:26;;;;;;;88.70;41.90;;;;;;;7.00;55.79;100022.70;1746721;81;21489;-40
2022/03/26 01:08:53;;;;;;;86.20;40.40;;;;;;;6.95;56.58;100017.63;1746619;81;21904;-40
2022/03/26 01:11:20;;;;;;;82.95;41.02;;;;;;;6.94;56.75;100021.13;1746632;82;20964;-41
2022/03/26 01:13:48;;;;;;;88.62;41.20;;;;;;;6.94;56.11;100011.13;1746490;82;21030;-40
2022/03/26 01:16:14;;;;;;;85.57;41.58;;;;;;;6.86;56.94;100010.05;1746542;82;21014;-41
2022/03/26 01:18:42;;;;;;;87.02;40.70;;;;;;;6.84;56.49;100019.23;1746775;82;21026;-42
2022/03/26 01:21:08;;;;;;;84.07;42.23;;;;;;;6.82;58.01;100009.27;1746593;81;21022;-40
2022/03/26 01:23:34;;;;;;;82.90;41.68;;;;;;;6.81;56.84;100011.47;1746639;81;21548;-41
2022/03/26 01:26:02;;;;;;;87.05;40.75;;;;;;;6.79;58.49;100017.20;1746511;82;21051;-40
2022/03/26 01:28:30;;;;;;;91.35;43.08;;;;;;;6.77;58.20;100012.89;1746519;81;20986;-41
2022/03/26 01:30:57;;;;;;;84.83;41.88;;;;;;;6.72;57.65;100011.73;1746516;82;21483;-40
2022/03/26 01:33:23;;;;;;;88.50;41.20;;;;;;;6.61;60.67;100008.56;1746550;82;20991;-41
2022/03/26 01:35:48;;;;;;;82.88;41.80;;;;;;;6.64;58.12;100004.53;1746315;82;21031;-41
2022/03/26 01:38:14;;;;;;;93.30;43.68;;;;;;;6.58;59.02;100008.63;1746497;82;21046;-41
2022/03/26 01:40:40;;;;;;;87.15;43.63;;;;;;;6.59;57.69;100015.13;1746460;82;20994;-41
2022/03/26 01:43:06;;;;;;;94.67;42.80;;;;;;;6.58;58.67;100008.17;1746483;82;20995;-41
2022/03/26 01:45:32;;;;;;;95.72;41.60;;;;;;;6.53;60.25;100008.32;1746461;82;21101;-41
2022/03/26 01:47:59;;;;;;;88.10;40.45;;;;;;;6.57;59.06;100008.22;1746577;82;20987;-41
2022/03/26 01:50:28;;;;;;;88.10;43.17;;;;;;;6.59;58.71;100006.45;1746791;82;21442;-40
2022/03/26 01:52:54;;;;;;;87.57;42.88;;;;;;;6.58;59.57;99999.48;1746637;82;20987;-41
2022/03/26 01:55:22;;;;;;;84.28;41.98;;;;;;;6.59;58.80;99997.30;1746498;82;21515;-41
2022/03/26 01:57:51;;;;;;;98.27;44.53;;;;;;;6.56;59.52;100002.59;1746508;82;20949;-41
2022/03/26 02:00:17;;;;;;;85.80;43.28;;;;;;;6.53;59.54;99996.56;1746563;82;20995;-41
2022/03/26 02:02:44;;;;;;;79.53;42.73;;;;;;;6.54;59.72;99999.56;1746558;82;21003;-40
2022/03/26 02:05:14;;;;;;;79.35;41.40;;;;;;;6.52;59.28;99993.98;1746473;82;20982;-41
2022/03/26 02:07:43;;;;;;;88.37;42.48;;;;;;;6.49;59.74;99994.06;1746477;82;21492;-40
2022/03/26 02:10:13;;;;;;;81.20;42.83;;;;;;;6.44;60.41;99994.20;1746471;82;21493;-41
2022/03/26 02:12:40;;;;;;;86.57;43.15;;;;;;;6.43;59.68;99997.70;1746326;82;21023;-41
2022/03/26 02:15:07;;;;;;;86.60;42.05;;;;;;;6.40;59.25;99993.85;1746404;82;21035;-40
2022/03/26 02:17:34;;;;;;;;;;;;;;;6.41;59.10;99991.66;1749065;82;21454;-42
2022/03/26 02:20:02;;;;;;;84.28;42.88;;;;;;;6.37;62.05;99994.38;1746550;82;20111;-41
2022/03/26 02:22:29;;;;;;;95.42;44.58;;;;;;;6.32;60.58;99992.76;1746483;82;21014;-40
2022/03/26 02:24:56;;;;;;;95.15;43.25;;;;;;;6.31;60.68;99990.19;1746660;82;20956;-41
2022/03/26 02:27:24;;;;;;;80.47;41.53;;;;;;;6.31;61.80;99984.95;1746529;82;21003;-41
2022/03/26 02:29:51;;;;;;;89.30;42.30;;;;;;;6.30;62.43;99988.48;1746343;81;20992;-41
2022/03/26 02:32:27;;;;;;;87.90;42.83;;;;;;;6.30;61.14;99989.34;1746651;82;21000;-41
2022/03/26 02:34:54;;;;;;;84.13;43.25;;;;;;;6.27;61.12;99986.80;1746434;82;20964;-41
2022/03/26 02:37:20;;;;;;;90.83;42.70;;;;;;;6.26;60.48;99987.71;1746566;82;21596;-40
2022/03/26 02:39:46;;;;;;;84.13;42.53;;;;;;;6.21;62.53;99984.81;1746433;82;21023;-41
2022/03/26 02:42:13;;;;;;;86.35;42.60;;;;;;;6.21;61.79;99990.04;1742294;79;21633;-41
2022/03/26 02:44:40;;;;;;;90.20;43.80;;;;;;;6.18;62.64;99984.89;1752545;81;20961;-41
2022/03/26 02:47:08;;;;;;;85.15;44.08;;;;;;;6.12;64.31;99990.67;1752686;82;20977;-40
2022/03/26 02:49:34;;;;;;;79.62;42.53;;;;;;;6.12;63.41;99984.59;1752052;81;20974;-41
2022/03/26 02:52:00;;;;;;;85.62;42.78;;;;;;;6.10;62.77;99979.41;1752201;82;21495;-41
2022/03/26 02:54:26;;;;;;;90.05;43.85;;;;;;;6.09;62.85;99973.80;1752422;82;20950;-41
2022/03/26 02:56:57;;;;;;;80.85;42.23;;;;;;;6.08;63.01;99969.45;1752322;81;21005;-40
2022/03/26 02:59:21;;;;;;;89.83;45.40;;;;;;;6.07;64.39;99962.51;1750464;82;21451;-40
2022/03/26 03:01:48;;;;;;;88.17;43.87;;;;;;;6.08;62.51;99957.70;1752329;81;20973;-40
2022/03/26 03:04:14;;;;;;;88.33;44.30;;;;;;;6.03;64.09;99946.52;1752347;81;20969;-41
2022/03/26 03:06:40;;;;;;;84.70;42.27;;;;;;;6.03;63.77;99946.52;1752473;81;20976;-40
2022/03/26 03:09:07;;;;;;;83.75;42.67;;;;;;;6.01;63.94;99950.93;1752282;81;20977;-41
2022/03/26 03:11:35;;;;;;;81.20;40.98;;;;;;;6.00;64.26;99937.45;1752411;82;21450;-40
2022/03/26 03:14:03;;;;;;;86.15;41.70;;;;;;;6.04;62.35;99933.89;1752301;82;21012;-41
2022/03/26 03:16:29;;;;;;;77.08;41.23;;;;;;;6.00;63.47;99930.92;1752264;82;21494;-40
2022/03/26 03:18:55;;;;;;;85.22;40.28;;;;;;;6.00;62.65;99927.02;1752290;82;20962;-40
2022/03/26 03:21:21;;;;;;;83.55;40.65;;;;;;;6.00;64.09;99923.55;1752443;82;21434;-41
2022/03/26 03:23:46;;;;;;;81.25;40.05;;;;;;;5.97;63.60;99921.89;1752304;81;20973;-41
2022/03/26 03:26:13;;;;;;;78.78;39.33;;;;;;;5.96;63.31;99922.77;1752325;82;20974;-41
2022/03/26 03:28:39;;;;;;;80.72;40.03;;;;;;;5.93;63.01;99922.81;1752282;82;20973;-41
2022/03/26 03:31:05;;;;;;;72.47;38.05;;;;;;;5.94;62.17;99925.39;1752244;82;21057;-41
2022/03/26 03:33:31;;;;;;;80.05;38.83;;;;;;;5.86;65.25;99918.68;1752261;81;21013;-41
2022/03/26 03:35:57;;;;;;;73.45;39.18;;;;;;;5.91;63.59;99916.78;1752418;82;20986;-41
2022/03/26 03:38:29;;;;;;;84.60;39.58;;;;;;;5.89;64.54;99908.98;1751996;82;21139;-40
2022/03/26 03:40:52;;;;;;;70.60;38.10;;;;;;;5.89;63.46;99915.97;1750598;82;20954;-39
2022/03/26 03:43:18;;;;;;;76.95;37.28;;;;;;;5.86;64.50;99910.39;1759564;81;21029;-41
2022/03/26 03:45:44;;;;;;;77.58;38.65;;;;;;;5.89;63.83;99913.36;1760840;81;21017;-40
2022/03/26 03:48:10;;;;;;;75.95;36.23;;;;;;;5.90;63.70;99903.34;1760828;81;20973;-40
2022/03/26 03:50:36;;;;;;;72.15;36.45;;;;;;;5.89;66.40;99900.30;1760872;80;21470;-41
2022/03/26 03:53:03;;;;;;;73.33;36.55;;;;;;;5.89;63.99;99897.70;1760877;80;21408;-40
2022/03/26 03:55:28;;;;;;;64.80;35.17;;;;;;;5.87;64.87;99898.19;1761041;81;20949;-41
2022/03/26 03:57:55;;;;;;;68.22;36.85;;;;;;;5.89;63.82;99889.86;1760816;81;20962;-41
2022/03/26 04:00:20;;;;;;;71.75;34.80;;;;;;;5.89;64.74;99895.08;1760782;80;20985;-42
2022/03/26 04:02:47;;;;;;;70.57;34.88;;;;;;;5.90;65.99;99894.20;1760758;81;20982;-40
2022/03/26 04:05:13;;;;;;;63.60;33.38;;;;;;;5.95;64.21;99891.03;1760878;81;21013;-41
2022/03/26 04:07:41;;;;;;;61.77;33.08;;;;;;;5.95;65.71;99888.41;1760820;81;21474;-41
2022/03/26 04:10:10;;;;;;;70.35;35.35;;;;;;;6.00;65.06;99890.45;1760044;81;21468;-41
2022/03/26 04:12:38;;;;;;;56.63;33.15;;;;;;;5.98;65.59;99897.48;1760791;81;21012;-40
2022/03/26 04:15:09;;;;;;;65.50;33.02;;;;;;;6.01;64.80;99893.95;1760930;81;20950;-40
2022/03/26 04:17:35;;;;;;;63.55;33.10;;;;;;;5.97;65.86;99891.87;1760760;81;20998;-41
2022/03/26 04:20:06;;;;;;;67.90;33.00;;;;;;;5.95;65.66;99891.03;1760781;81;20993;-40
2022/03/26 04:22:31;;;;;;;70.22;32.80;;;;;;;5.95;65.75;99894.94;1760673;81;20966;-41
2022/03/26 04:24:57;;;;;;;66.90;33.90;;;;;;;5.96;65.41;99891.45;1760909;81;21496;-40
2022/03/26 04:27:23;;;;;;;60.55;31.60;;;;;;;5.98;65.94;99892.72;1760832;80;21511;-41
2022/03/26 04:29:48;;;;;;;76.77;32.38;;;;;;;5.98;65.92;99890.95;1760872;81;21012;-41
2022/03/26 04:32:14;;;;;;;67.15;31.20;;;;;;;5.97;65.57;99887.95;1760796;81;21045;-41
2022/03/26 04:34:40;;;;;;;63.68;31.57;;;;;;;5.93;65.56;99891.06;1760919;81;21340;-40
2022/03/26 04:37:06;;;;;;;63.68;31.27;;;;;;;5.89;65.68;99891.17;1760884;81;21525;-41
2022/03/26 04:39:33;;;;;;;59.45;29.75;;;;;;;5.82;66.48;99890.49;1760864;81;21462;-40
2022/03/26 04:41:58;;;;;;;58.35;32.03;;;;;;;5.83;66.67;99889.58;1756011;81;21026;-40
2022/03/26 04:44:24;;;;;;;57.25;30.25;;;;;;;5.82;66.24;99890.49;1737663;82;20993;-40
2022/03/26 04:46:50;;;;;;;62.78;31.40;;;;;;;5.85;65.67;99884.33;1737650;82;20978;-40
2022/03/26 04:49:16;;;;;;;58.08;30.88;;;;;;;5.81;66.64;99888.77;1737686;81;21028;-40
2022/03/26 04:51:42;;;;;;;65.97;30.25;;;;;;;5.82;65.75;99879.17;1737682;82;20966;-41
2022/03/26 04:54:08;;;;;;;59.25;30.77;;;;;;;5.80;65.47;99878.36;1737700;82;21002;-40
2022/03/26 04:56:33;;;;;;;55.70;29.07;;;;;;;5.79;65.21;99877.52;1737767;82;21503;-41
2022/03/26 04:59:00;;;;;;;54.45;30.40;;;;;;;5.80;65.92;99878.36;1737717;82;21502;-41
2022/03/26 05:01:26;;;;;;;59.45;31.00;;;;;;;5.74;66.88;99884.61;1737970;82;20974;-41
2022/03/26 05:03:52;;;;;;;53.90;30.75;;;;;;;5.80;65.31;99878.36;1737680;82;20994;-40
2022/03/26 05:06:17;;;;;;;57.40;28.67;;;;;;;5.76;65.45;99878.44;1737842;81;21029;-40
2022/03/26 05:08:43;;;;;;;55.17;28.32;;;;;;;5.79;65.60;99878.82;1737638;82;21044;-40
2022/03/26 05:11:09;;;;;;;64.65;29.75;;;;;;;5.74;67.29;99875.02;1737648;82;21045;-41
2022/03/26 05:13:35;;;;;;;53.78;29.00;;;;;;;5.80;65.55;99872.69;1737569;82;21030;-40
2022/03/26 05:16:03;;;;;;;51.95;28.85;;;;;;;5.77;66.71;99872.33;1737679;82;21046;-40
2022/03/26 05:18:28;;;;;;;;;;;;;;;5.79;66.63;99868.84;1740329;82;20966;-40
2022/03/26 05:20:58;;;;;;;57.50;29.72;;;;;;;5.82;66.73;99872.65;1737669;82;20363;-40
2022/03/26 05:23:21;;;;;;;;;;;;;;;5.82;66.73;99872.65;1739061;82;20978;-41
2022/03/26 05:25:47;;;;;;;60.33;28.85;;;;;;;5.85;66.57;99876.49;1737704;82;20424;-41
2022/03/26 05:28:13;;;;;;;73.33;30.23;;;;;;;5.91;66.36;99873.70;1737575;82;21041;-41
2022/03/26 05:30:38;;;;;;;54.38;27.25;;;;;;;5.98;65.78;99867.45;1737655;82;21162;-40
2022/03/26 05:33:05;;;;;;;64.82;29.52;;;;;;;6.04;66.93;99869.04;1737653;82;20997;-40
2022/03/26 05:35:31;;;;;;;54.93;28.52;;;;;;;6.07;65.79;99865.90;1737656;82;21038;-40
2022/03/26 05:37:57;;;;;;;52.45;27.62;;;;;;;6.16;66.08;99860.88;1737783;82;21010;-40
2022/03/26 05:40:23;;;;;;;52.62;27.60;;;;;;;6.21;65.56;99862.91;1737699;82;21491;-41
2022/03/26 05:42:49;;;;;;;54.25;27.98;;;;;;;6.26;65.90;99857.11;1739732;81;21495;-40
2022/03/26 05:45:17;;;;;;;51.63;26.33;;;;;;;6.35;66.33;99859.92;1742558;82;20970;-40
2022/03/26 05:47:43;;;;;;;53.13;27.20;;;;;;;6.41;66.13;99851.89;1742425;82;20975;-41
2022/03/26 05:50:11;;;;;;;50.63;25.82;;;;;;;6.48;65.41;99857.34;1742342;82;20967;-41
2022/03/26 05:52:37;;;;;;;60.05;26.48;;;;;;;6.47;66.52;99856.08;1742368;82;20982;-40
2022/03/26 05:55:04;;;;;;;58.17;27.27;;;;;;;6.56;64.91;99860.18;1742363;82;21437;-40
2022/03/26 05:57:30;;;;;;;54.03;26.82;;;;;;;6.55;65.54;99852.80;1742363;82;20982;-41
2022/03/26 05:59:56;;;;;;;53.73;27.93;;;;;;;6.56;65.77;99839.28;1742271;82;20939;-41
2022/03/26 06:02:22;;;;;;;55.30;27.05;;;;;;;6.56;65.77;99839.28;1742274;82;21002;-40
2022/03/26 06:04:47;;;;;;;59.38;27.90;;;;;;;6.60;65.85;99843.05;1742250;82;20974;-41
2022/03/26 06:07:14;;;;;;;53.00;27.67;;;;;;;6.66;65.66;99839.41;1742333;82;20938;-41
2022/03/26 06:09:40;;;;;;;53.90;27.47;;;;;;;6.70;65.27;99844.48;1742606;82;21431;-41
2022/03/26 06:12:08;;;;;;;51.70;27.98;;;;;;;6.70;65.86;99848.41;1742341;82;20975;-40
2022/03/26 06:14:34;;;;;;;63.50;28.65;;;;;;;6.73;66.41;99848.75;1742387;81;21030;-41
2022/03/26 06:17:00;;;;;;;53.50;28.73;;;;;;;6.83;64.75;99850.19;1742279;82;21463;-40
2022/03/26 06:19:26;;;;;;;55.73;28.07;;;;;;;6.84;65.53;99853.22;1742205;82;20970;-40
2022/03/26 06:21:53;;;;;;;48.80;26.37;;;;;;;6.89;64.98;99847.41;1742252;82;20967;-41
2022/03/26 06:24:20;;;;;;;59.33;27.42;;;;;;;6.91;66.43;99841.67;1742381;82;20972;-41
2022/03/26 06:26:48;;;;;;;131.70;31.02;;;;;;;6.99;65.90;99839.27;1742416;82;21498;-41
2022/03/26 06:29:14;;;;;;;65.15;28.92;;;;;;;7.08;64.45;99842.89;1742469;82;20982;-40
2022/03/26 06:31:40;;;;;;;55.45;27.50;;;;;;;7.06;65.79;99840.78;1742243;82;20974;-40
2022/03/26 06:34:06;;;;;;;54.90;27.65;;;;;;;7.13;65.37;99840.11;1742266;81;20966;-40
2022/03/26 06:36:33;;;;;;;47.25;25.95;;;;;;;7.26;65.13;99838.37;1742252;82;21025;-41
2022/03/26 06:38:59;;;;;;;;;;;;;;;7.30;65.69;99833.89;1744797;82;20974;-40
2022/03/26 06:41:26;;;;;;;49.80;26.20;;;;;;;7.37;66.10;99826.67;1742189;82;20107;-40
2022/03/26 06:43:52;;;;;;;57.10;27.40;;;;;;;7.47;65.10;99821.54;1742368;82;21045;-40
2022/03/26 06:46:18;;;;;;;49.95;25.57;;;;;;;7.56;65.38;99818.60;1742269;82;21554;-40
2022/03/26 06:48:44;;;;;;;53.28;26.50;;;;;;;7.68;64.70;99819.50;1742334;81;21018;-41
2022/03/26 06:51:09;;;;;;;55.35;27.02;;;;;;;7.77;64.96;99817.48;1742350;82;21010;-41
2022/03/26 06:53:36;;;;;;;45.00;25.25;;;;;;;7.90;63.94;99825.75;1742208;82;21163;-41
2022/03/26 06:56:07;;;;;;;56.92;24.72;;;;;;;7.97;63.85;99820.23;1742549;82;21514;-40
2022/03/26 06:58:34;;;;;;;45.60;23.92;;;;;;;8.08;63.85;99828.55;1742305;82;21786;-40
2022/03/26 07:01:01;;;;;;;47.15;25.80;;;;;;;8.15;64.22;99833.55;1742394;82;20966;-40
2022/03/26 07:03:28;;;;;;;49.10;24.00;;;;;;;8.22;63.62;99820.19;1742487;81;20982;-40
2022/03/26 07:05:54;;;;;;;46.98;21.93;;;;;;;8.33;63.32;99824.16;1742370;82;21627;-40
2022/03/26 07:08:20;;;;;;;45.45;22.37;;;;;;;8.45;63.34;99820.65;1742276;82;21455;-40
2022/03/26 07:10:46;;;;;;;40.00;22.10;;;;;;;8.51;63.37;99809.53;1742394;82;20971;-40
2022/03/26 07:13:14;;;;;;;43.75;21.45;;;;;;;8.59;63.38;99821.91;1742248;82;21471;-40
2022/03/26 07:15:41;;;;;;;39.65;20.23;;;;;;;8.70;62.98;99816.25;1741976;82;20971;-42
2022/03/26 07:18:11;;;;;;;50.28;22.15;;;;;;;8.76;62.99;99817.30;1742422;82;20947;-40
2022/03/26 07:20:37;;;;;;;48.87;21.05;;;;;;;8.79;63.06;99818.51;1742281;82;20966;-41
2022/03/26 07:23:02;;;;;;;55.60;20.85;;;;;;;8.89;62.60;99815.89;1742319;81;21444;-42
2022/03/26 07:25:29;;;;;;;43.90;20.72;;;;;;;9.00;62.51;99810.22;1742302;82;21519;-42
2022/03/26 07:27:55;;;;;;;35.98;19.77;;;;;;;9.08;62.32;99808.16;1742543;82;21009;-42
2022/03/26 07:30:21;;;;;;;46.70;20.57;;;;;;;9.15;62.58;99806.98;1742250;82;20939;-42
2022/03/26 07:32:47;;;;;;;52.95;21.33;;;;;;;9.28;61.86;99798.58;1742251;81;20986;-42
2022/03/26 07:35:13;;;;;;;47.03;21.02;;;;;;;9.37;61.53;99792.97;1742284;82;20970;-42
2022/03/26 07:37:39;;;;;;;41.37;20.92;;;;;;;9.43;61.57;99797.95;1742175;82;20990;-42
2022/03/26 07:40:06;;;;;;;42.38;19.87;;;;;;;9.55;61.14;99792.18;1742210;81;20974;-41
2022/03/26 07:42:32;;;;;;;45.70;20.35;;;;;;;9.67;60.99;99802.59;1744220;81;20982;-41
2022/03/26 07:44:58;;;;;;;44.58;20.05;;;;;;;9.78;60.53;99799.04;1760835;81;20953;-42
2022/03/26 07:47:23;;;;;;;37.70;21.93;;;;;;;9.90;60.24;99807.33;1760784;81;20981;-41
2022/03/26 07:49:49;;;;;;;53.23;19.10;;;;;;;10.12;59.99;99801.95;1760791;81;20970;-41
2022/03/26 07:52:16;;;;;;;45.83;20.62;;;;;;;10.45;59.10;99815.83;1760689;81;20977;-41
2022/03/26 07:54:42;;;;;;;35.03;17.62;;;;;;;10.67;58.20;99803.36;1760795;81;20977;-42
2022/03/26 07:57:08;;;;;;;44.40;19.40;;;;;;;11.08;58.00;99799.20;1760810;81;20981;-42
2022/03/26 07:59:33;;;;;;;29.90;15.90;;;;;;;11.37;56.88;99794.71;1760832;81;21013;-41
2022/03/26 08:01:59;;;;;;;40.35;15.98;;;;;;;11.53;56.09;99796.52;1760803;80;20965;-43
2022/03/26 08:04:26;;;;;;;32.28;16.25;;;;;;;11.70;55.70;99795.63;1760783;81;20942;-42
2022/03/26 08:06:51;;;;;;;30.65;15.13;;;;;;;11.71;55.19;99787.25;1761149;81;20934;-43
2022/03/26 08:09:17;;;;;;;41.10;14.60;;;;;;;11.84;54.72;99780.87;1760907;80;21495;-42
2022/03/26 08:11:45;;;;;;;25.10;13.88;;;;;;;12.03;54.47;99803.20;1760829;81;20962;-42
2022/03/26 08:14:13;;;;;;;54.88;13.88;;;;;;;12.14;53.85;99787.66;1760868;81;21013;-43
2022/03/26 08:16:40;;;;;;;35.10;14.50;;;;;;;12.19;53.10;99790.91;1759569;81;20982;-42
2022/03/26 08:19:07;;;;;;;39.13;12.90;;;;;;;12.39;53.14;99775.79;1761003;80;20949;-42
2022/03/26 08:21:35;;;;;;;58.30;13.57;;;;;;;12.49;52.32;99778.28;1761114;81;20942;-42
2022/03/26 08:24:00;;;;;;;29.50;13.50;;;;;;;12.38;52.28;99774.07;1760652;81;20970;-42
2022/03/26 08:26:29;;;;;;;30.90;13.05;;;;;;;12.33;52.30;99774.79;1760785;81;20981;-43
2022/03/26 08:28:58;;;;;;;29.37;12.53;;;;;;;12.28;51.77;99779.85;1760786;80;20981;-45
2022/03/26 08:31:27;;;;;;;84.60;14.80;;;;;;;12.32;51.95;99772.63;1760804;81;21102;-42
2022/03/26 08:33:54;;;;;;;45.28;13.40;;;;;;;12.24;51.86;99769.09;1760699;80;21501;-42
2022/03/26 08:36:20;;;;;;;28.90;12.82;;;;;;;12.25;51.92;99773.42;1760790;81;20985;-43
2022/03/26 08:38:48;;;;;;;27.20;11.95;;;;;;;12.35;51.78;99757.96;1760859;80;21068;-42
2022/03/26 08:41:17;;;;;;;30.65;13.03;;;;;;;12.38;51.22;99764.84;1760764;80;20989;-42
2022/03/26 08:43:43;;;;;;;56.08;13.18;;;;;;;12.51;51.10;99775.56;1745474;81;21039;-42
2022/03/26 08:46:10;;;;;;;31.00;12.75;;;;;;;12.47;51.11;99778.84;1726621;83;20998;-42
2022/03/26 08:48:36;;;;;;;38.85;12.55;;;;;;;12.60;50.86;99772.41;1726580;82;21018;-42
2022/03/26 08:51:03;;;;;;;27.75;12.00;;;;;;;12.76;50.29;99776.36;1726739;83;21523;-42
2022/03/26 08:53:29;;;;;;;;;;;;;;;12.87;49.76;99763.40;1729247;83;21068;-43
2022/03/26 08:55:55;;;;;;;58.20;12.03;;;;;;;12.80;49.35;99777.88;1726697;82;20165;-43
2022/03/26 08:58:21;;;;;;;46.08;12.73;;;;;;;12.84;49.60;99767.08;1726688;83;20998;-44
2022/03/26 09:00:49;;;;;;;21.52;9.53;;;;;;;12.89;49.33;99760.68;1726627;83;21582;-43
2022/03/26 09:03:17;;;;;;;169.37;18.20;;;;;;;13.14;48.79;99770.67;1726782;83;21002;-43
2022/03/26 09:05:44;;;;;;;28.15;11.38;;;;;;;13.14;48.33;99757.47;1726682;83;21557;-43
2022/03/26 09:08:10;;;;;;;51.37;13.22;;;;;;;13.29;48.22;99753.92;1726711;83;21139;-43
2022/03/26 09:10:36;;;;;;;33.00;11.53;;;;;;;13.44;48.02;99754.82;1728347;82;21002;-42
2022/03/26 09:13:02;;;;;;;26.93;11.43;;;;;;;13.63;47.66;99748.81;1749368;82;21017;-44
2022/03/26 09:15:28;;;;;;;23.40;11.25;;;;;;;13.94;47.27;99751.39;1749442;82;21048;-45
2022/03/26 09:17:54;;;;;;;38.40;11.63;;;;;;;14.11;46.79;99756.94;1749893;82;20997;-44
2022/03/26 09:20:20;;;;;;;86.15;13.83;;;;;;;14.37;45.77;99772.48;1749795;82;21427;-44
2022/03/26 09:22:46;;;;;;;29.92;9.58;;;;;;;14.32;45.00;99749.45;1749747;82;21029;-43
2022/03/26 09:25:13;;;;;;;24.18;9.40;;;;;;;14.61;45.21;99745.42;1741952;80;20961;-43
2022/03/26 09:27:39;;;;;;;24.20;9.10;;;;;;;14.96;45.13;99740.00;1742326;82;20957;-46
2022/03/26 09:30:06;;;;;;;45.58;9.78;;;;;;;14.96;43.24;99741.33;1749698;82;21036;-44
2022/03/26 09:32:32;;;;;;;43.45;10.63;;;;;;;15.24;43.75;99741.28;1749562;82;21001;-43
2022/03/26 09:34:58;;;;;;;20.08;8.93;;;;;;;15.41;43.79;99746.75;1749300;82;21016;-42
2022/03/26 09:37:24;;;;;;;34.83;9.40;;;;;;;15.40;42.93;99752.53;1749697;82;21008;-43
2022/03/26 09:39:50;;;;;;;24.45;9.20;;;;;;;15.20;42.92;99745.09;1732339;82;21005;-44
2022/03/26 09:42:16;;;;;;;23.45;9.25;;;;;;;15.29;42.56;99746.64;1724975;83;20981;-44
2022/03/26 09:44:42;;;;;;;92.90;10.65;;;;;;;15.23;42.80;99732.98;1727170;83;21031;-44
2022/03/26 09:47:09;;;;;;;49.00;10.53;;;;;;;15.34;42.27;99746.34;1728218;83;21064;-43
2022/03/26 09:49:37;;;;;;;;;;;;;;;15.35;41.97;99760.81;1730779;83;20989;-45
2022/03/26 09:52:05;;;;;;;31.37;9.05;;;;;;;15.23;41.79;99737.79;1728139;83;20408;-44
2022/03/26 09:54:33;;;;;;;35.90;8.10;;;;;;;15.07;41.79;99738.45;1727639;83;21394;-44
2022/03/26 09:56:59;;;;;;;21.27;9.43;;;;;;;15.05;41.91;99723.98;1727887;83;20985;-45
2022/03/26 09:59:26;;;;;;;46.65;10.70;;;;;;;14.75;42.56;99726.40;1728077;83;21012;-44
2022/03/26 10:01:52;;;;;;;29.10;9.58;;;;;;;14.93;42.52;99734.06;1728169;83;21056;-44
2022/03/26 10:04:21;;;;;;;27.42;9.58;;;;;;;14.83;42.82;99742.25;1728117;83;21044;-44
2022/03/26 10:06:58;;;;;;;19.55;9.43;;;;;;;15.09;42.75;99724.63;1756161;81;21039;-44
2022/03/26 10:09:47;;;;;;;31.93;9.70;;;;;;;15.25;42.35;99749.13;1768713;80;21003;-45
2022/03/26 10:12:19;;;;;;;21.42;9.95;;;;;;;15.11;42.43;99728.84;1768623;81;21016;-44
2022/03/26 10:14:50;;;;;;;24.35;9.70;;;;;;;15.25;42.48;99716.01;1768592;81;20988;-46
2022/03/26 10:17:24;;;;;;;33.33;11.60;;;;;;;15.39;42.48;99721.70;1768577;80;21039;-45
2022/03/26 10:19:57;;;;;;;41.83;10.90;;;;;;;15.44;42.36;99716.08;1768543;80;21469;-45
2022/03/26 10:22:44;;;;;;;27.55;10.03;;;;;;;15.44;42.28;99722.70;1768609;81;21032;-45
2022/03/26 10:25:17;;;;;;;37.98;10.88;;;;;;;15.32;41.97;99700.55;1768715;80;20980;-43
2022/03/26 10:27:51;;;;;;;35.13;8.58;;;;;;;15.81;41.93;99698.95;1768611;80;21430;-44
2022/03/26 10:33:22;;;;;;;24.00;8.43;;;;;;;16.20;40.92;99697.92;1768718;81;21048;-43
2022/03/26 10:36:00;;;;;;;17.70;7.35;;;;;;;16.48;39.80;99698.10;1768595;81;20999;-43
2022/03/26 10:38:32;;;;;;;21.12;7.80;;;;;;;16.54;39.67;99688.83;1767647;81;20969;-44
2022/03/26 10:41:01;;;;;;;275.62;17.90;;;;;;;16.58;39.40;99684.98;1768578;81;21492;-45
2022/03/26 10:43:28;;;;;;;16.45;7.83;;;;;;;16.88;38.56;99680.56;1769129;80;21024;-43
2022/03/26 10:45:58;;;;;;;23.32;7.17;;;;;;;16.96;38.48;99676.48;1781386;80;20944;-46
2022/03/26 10:48:36;;;;;;;22.32;7.80;;;;;;;16.93;37.86;99693.48;1781332;80;20983;-43
2022/03/26 10:51:13;;;;;;;37.33;8.08;;;;;;;17.09;38.21;99705.13;1781409;80;20967;-44
2022/03/26 10:53:42;;;;;;;28.90;7.28;;;;;;;17.25;37.71;99684.39;1781538;80;20951;-46
2022/03/26 10:56:12;;;;;;;36.83;7.12;;;;;;;17.76;37.39;99670.30;1780668;77;21527;-46
2022/03/26 10:58:39;;;;;;;28.80;6.83;;;;;;;18.34;36.52;99676.29;1780810;79;21030;-43
2022/03/26 11:01:06;;;;;;;25.62;7.10;;;;;;;18.79;35.29;99672.60;1781609;80;20987;-45
2022/03/26 11:03:35;;;;;;;62.87;9.00;;;;;;;18.79;35.29;99672.60;1781760;80;21022;-43
2022/03/26 11:06:01;;;;;;;41.63;8.33;;;;;;;18.65;35.14;99676.92;1781133;80;20963;-45
2022/03/26 11:08:35;;;;;;;27.97;7.40;;;;;;;18.37;35.21;99665.40;1780273;80;20948;-45
2022/03/26 11:11:09;;;;;;;15.70;6.45;;;;;;;17.85;35.87;99681.58;1781385;80;21021;-45
2022/03/26 11:13:40;;;;;;;21.30;6.58;;;;;;;17.42;36.43;99678.25;1780412;79;21441;-44
2022/03/26 11:16:10;;;;;;;31.90;6.28;;;;;;;16.99;36.69;99679.75;1781617;80;20975;-45
2022/03/26 11:18:56;;;;;;;19.45;6.83;;;;;;;16.56;37.27;99679.44;1781429;80;21457;-44
2022/03/26 11:21:58;;;;;;;36.05;7.75;;;;;;;16.21;37.78;99682.84;1781760;80;20998;-47
2022/03/26 11:24:50;;;;;;;20.20;6.60;;;;;;;15.88;38.81;99669.27;1781457;80;20979;-44
2022/03/26 11:27:54;;;;;;;27.35;6.47;;;;;;;15.68;39.08;99680.37;1773989;80;21011;-45